Time;durP1;ratioP1;P1;durP2;ratioP2;P2;SDS_P1;SDS_P2;PMS_P1;PMS_P2;Temp;Humidity;BMP_temperature;BMP_pressure;BME280_temperature;BME280_humidity;BME280_pressure;Samples;Min_cycle;Max_cycle;Signal;HPM_P1;HPM_P2
2021/09/14 00:00:00;;;;;;;;;11.00;7.75;;;;;21.74;56.34;100299.25;5074634;27;46511;-63
2021/09/14 00:02:26;;;;;;;;;9.50;9.50;;;;;21.71;56.57;100275.44;5072962;28;45639;-63
2021/09/14 00:04:51;;;;;;;;;9.75;9.00;;;;;21.71;56.84;100275.44;5074738;27;45447;-63
2021/09/14 00:07:16;;;;;;;;;4.75;4.75;;;;;21.66;56.98;100257.13;5074664;27;45322;-62
2021/09/14 00:09:42;;;;;;;;;10.00;9.25;;;;;21.66;57.15;100251.78;5074326;27;45484;-64
2021/09/14 00:12:07;;;;;;;;;7.25;7.25;;;;;21.66;56.75;100266.97;5093559;27;45354;-62
2021/09/14 00:14:33;;;;;;;;;10.75;10.25;;;;;21.63;57.10;100265.44;5078076;27;45368;-63
2021/09/14 00:16:58;;;;;;;;;11.00;9.00;;;;;21.58;57.34;100273.03;5093585;27;45569;-63
2021/09/14 00:19:24;;;;;;;;;9.50;9.50;;;;;21.61;57.21;100280.78;5077851;27;46253;-63
2021/09/14 00:21:50;;;;;;;;;11.00;11.00;;;;;21.55;57.11;100276.81;5076288;28;45346;-62
2021/09/14 00:24:15;;;;;;;;;13.25;10.00;;;;;21.54;57.24;100272.44;5078244;27;45826;-63
2021/09/14 00:26:40;;;;;;;;;10.00;8.50;;;;;21.52;57.33;100276.25;5078421;27;45578;-62
2021/09/14 00:29:06;;;;;;;;;8.50;8.50;;;;;21.45;57.18;100270.63;5078177;27;46243;-63
2021/09/14 00:31:32;;;;;;;;;10.25;10.25;;;;;21.39;57.43;100266.69;5078423;28;45321;-63
2021/09/14 00:33:58;;;;;;;;;9.25;8.75;;;;;21.33;57.79;100275.28;5078798;27;45232;-63
2021/09/14 00:36:24;;;;;;;;;6.00;4.25;;;;;21.27;57.93;100273.16;5078630;28;45568;-64
2021/09/14 00:38:49;;;;;;;;;8.75;8.75;;;;;21.19;58.02;100264.94;5078099;27;46635;-62
2021/09/14 00:41:15;;;;;;;;;10.00;10.00;;;;;21.15;58.13;100270.56;5077970;27;45357;-64
2021/09/14 00:43:40;;;;;;;;;9.00;9.00;;;;;21.13;58.30;100280.56;5094102;27;45243;-64
2021/09/14 00:46:05;;;;;;;;;6.25;6.25;;;;;21.08;58.58;100269.44;5078604;27;45396;-63
2021/09/14 00:48:31;;;;;;;;;9.00;7.00;;;;;21.05;58.73;100276.91;5077674;27;45879;-63
2021/09/14 00:50:56;;;;;;;;;9.25;8.50;;;;;21.00;58.59;100277.31;5074542;27;45275;-64
2021/09/14 00:53:25;;;;;;;;;12.75;11.00;;;;;20.94;58.91;100275.19;5073492;28;45446;-63
2021/09/14 00:55:51;;;;;;;;;8.50;8.50;;;;;20.90;58.99;100271.94;5076819;27;45526;-64
2021/09/14 00:58:16;;;;;;;;;10.50;10.50;;;;;20.83;59.07;100274.31;5076922;28;45445;-64
2021/09/14 01:00:42;;;;;;;;;11.00;9.75;;;;;20.79;59.07;100283.59;5076927;27;45276;-63
2021/09/14 01:03:07;;;;;;;;;14.00;13.50;;;;;20.75;59.34;100275.97;5077643;28;45397;-64
2021/09/14 01:05:32;;;;;;;;;12.25;10.00;;;;;20.70;59.67;100265.66;5077555;28;45491;-64
2021/09/14 01:07:58;;;;;;;;;12.25;10.00;;;;;20.65;59.91;100278.59;5076106;28;46061;-64
2021/09/14 01:10:24;;;;;;;;;11.25;11.00;;;;;20.60;60.15;100281.66;5077412;28;45335;-63
2021/09/14 01:12:50;;;;;;;;;11.00;9.50;;;;;20.58;60.47;100283.59;5075990;28;45365;-64
2021/09/14 01:15:15;;;;;;;;;11.25;10.50;;;;;20.56;60.31;100274.88;5077565;27;45457;-64
2021/09/14 01:17:41;;;;;;;;;10.25;9.75;;;;;20.58;60.43;100270.25;5076137;28;46205;-64
2021/09/14 01:20:07;;;;;;;;;12.50;11.25;;;;;20.58;60.64;100276.44;5076190;28;45425;-63
2021/09/14 01:22:34;;;;;;;;;10.25;10.00;;;;;20.60;60.60;100280.81;5075608;28;45316;-63
2021/09/14 01:25:01;;;;;;;;;12.25;11.25;;;;;20.61;60.66;100291.34;5077435;28;45435;-64
2021/09/14 01:27:27;;;;;;;;;12.75;11.25;;;;;20.59;60.21;100287.97;5076906;27;45314;-64
2021/09/14 01:32:36;;;;;;;;;9.75;8.00;;;;;20.67;60.57;100292.66;5077365;28;45329;-63
2021/09/14 01:35:09;;;;;;;;;9.75;9.75;;;;;20.67;60.46;100298.00;5077181;27;45620;-63
2021/09/14 01:37:35;;;;;;;;;10.00;10.00;;;;;20.69;60.66;100296.91;5077221;28;46646;-63
2021/09/14 01:40:00;;;;;;;;;10.50;9.50;;;;;20.75;60.28;100306.19;5076762;27;45449;-64
2021/09/14 01:42:26;;;;;;;;;12.75;10.50;;;;;20.78;60.16;100311.28;5093009;27;45484;-63
2021/09/14 01:44:52;;;;;;;;;10.25;10.25;;;;;20.79;60.15;100315.66;5075742;27;45581;-65
2021/09/14 01:47:17;;;;;;;;;13.00;10.50;;;;;20.80;60.58;100322.69;5076908;27;45504;-63
2021/09/14 01:49:42;;;;;;;;;7.75;7.75;;;;;20.79;60.32;100312.97;5074921;28;45502;-63
2021/09/14 01:52:08;;;;;;;;;10.50;9.00;;;;;20.87;60.48;100333.72;5074755;27;46019;-63
2021/09/14 01:54:33;;;;;;;;;8.75;8.75;;;;;20.90;60.40;100345.94;5075349;28;45542;-63
2021/09/14 01:56:59;;;;;;;;;12.50;11.25;;;;;20.91;60.09;100352.97;5076580;27;45490;-64
2021/09/14 01:59:24;;;;;;;;;10.50;10.50;;;;;20.95;60.38;100354.41;5076775;27;45347;-66
2021/09/14 02:02:03;;;;;;;;;9.00;8.75;;;;;20.96;60.25;100356.97;5076911;28;45462;-64
2021/09/14 02:04:38;;;;;;;;;10.00;8.25;;;;;20.96;60.48;100356.09;5076858;27;45397;-62
2021/09/14 02:39:30;;;;;;;;;10.00;10.00;;;;;21.02;60.99;100304.75;5075507;28;45557;-63
2021/09/14 02:58:38;;;;;;;;;9.00;9.00;;;;;20.96;61.40;100270.53;5075620;28;45432;-64
2021/09/14 03:01:05;;;;;;;;;12.75;10.75;;;;;20.92;61.91;100253.09;5075448;27;45880;-64
2021/09/14 03:03:30;;;;;;;;;10.00;9.75;;;;;20.91;62.86;100248.72;5075356;28;45370;-65
2021/09/14 03:05:56;;;;;;;;;13.75;13.75;;;;;20.86;63.47;100238.47;5075254;27;45301;-63
2021/09/14 03:08:21;;;;;;;;;14.75;11.25;;;;;20.80;63.93;100231.81;5075582;27;45189;-64
2021/09/14 03:10:46;;;;;;;;;11.75;10.50;;;;;20.73;63.88;100219.94;5075167;27;45256;-63
2021/09/14 03:13:12;;;;;;;;;12.00;10.00;;;;;20.61;66.36;100219.19;5075485;28;45440;-65
2021/09/14 03:15:37;;;;;;;;;11.50;11.50;;;;;20.47;65.27;100217.78;5075393;27;45381;-64
2021/09/14 03:18:02;;;;;;;;;14.25;11.50;;;;;20.41;67.41;100229.00;5074173;28;45488;-63
2021/09/14 03:20:28;;;;;;;;;12.00;12.00;;;;;20.32;68.16;100235.97;5074939;27;46164;-64
2021/09/14 03:22:53;;;;;;;;;13.25;10.50;;;;;20.26;73.32;100242.72;5075113;27;45278;-64
2021/09/14 03:25:19;;;;;;;;;11.50;10.75;;;;;20.26;68.98;100247.19;5075044;27;45721;-63
2021/09/14 03:27:44;;;;;;;;;12.00;11.00;;;;;20.24;67.70;100250.00;5075577;27;45414;-63
2021/09/14 03:30:10;;;;;;;;;10.00;10.00;;;;;20.23;67.39;100232.28;5074788;27;45980;-64
2021/09/14 03:32:35;;;;;;;;;11.00;10.50;;;;;20.21;67.67;100231.59;5074839;27;45187;-63
2021/09/14 03:35:01;;;;;;;;;11.75;10.75;;;;;20.22;67.22;100225.25;5074887;27;45384;-63
2021/09/14 03:37:26;;;;;;;;;14.75;11.75;;;;;20.20;67.26;100218.34;5075182;27;45393;-64
2021/09/14 03:39:52;;;;;;;;;11.50;10.75;;;;;20.19;67.27;100216.66;5074830;27;45700;-64
2021/09/14 03:42:17;;;;;;;;;12.00;10.00;;;;;20.23;67.64;100202.91;5074972;27;45336;-64
2021/09/14 03:44:42;;;;;;;;;12.25;11.00;;;;;20.20;67.65;100197.84;5092373;27;45361;-64
2021/09/14 03:47:08;;;;;;;;;12.00;9.75;;;;;20.18;68.02;100189.13;5078602;27;45741;-66
2021/09/14 03:49:33;;;;;;;;;11.00;11.00;;;;;20.20;68.69;100179.16;5077211;27;45400;-64
2021/09/14 03:51:59;;;;;;;;;12.25;11.00;;;;;20.22;67.99;100173.66;5076192;27;45508;-64
2021/09/14 03:54:24;;;;;;;;;13.00;12.25;;;;;20.22;67.96;100182.53;5093759;27;45419;-65
2021/09/14 03:56:49;;;;;;;;;12.50;12.00;;;;;20.20;68.15;100176.50;5078944;27;45435;-63
2021/09/14 03:59:17;;;;;;;;;9.50;9.00;;;;;20.20;67.87;100175.63;5078451;27;46129;-64
2021/09/14 04:01:48;;;;;;;;;14.50;12.50;;;;;20.17;67.85;100179.44;5078545;27;45203;-63
2021/09/14 04:04:25;;;;;;;;;12.25;12.25;;;;;20.15;68.19;100197.41;5078402;27;45397;-64
2021/09/14 04:09:36;;;;;;;;;14.75;13.00;;;;;20.17;68.87;100202.59;5077881;27;45449;-63
2021/09/14 04:12:01;;;;;;;;;15.25;12.50;;;;;20.18;68.89;100201.63;5093802;27;45424;-63
2021/09/14 04:14:29;;;;;;;;;14.00;14.00;;;;;20.16;68.58;100190.22;5076989;28;45211;-63
2021/09/14 04:16:55;;;;;;;;;17.25;14.50;;;;;20.20;68.89;100189.84;5077856;27;45515;-63
2021/09/14 04:19:21;;;;;;;;;15.00;15.00;;;;;20.21;68.89;100188.84;5077884;27;46292;-67
2021/09/14 04:21:47;;;;;;;;;14.50;13.25;;;;;20.25;68.50;100192.09;5078609;27;45782;-65
2021/09/14 04:24:12;;;;;;;;;15.50;12.50;;;;;20.26;68.72;100209.81;5078217;27;45332;-64
2021/09/14 04:26:38;;;;;;;;;15.00;14.00;;;;;20.26;69.17;100209.81;5077906;28;45810;-63
2021/09/14 04:29:03;;;;;;;;;13.25;13.25;;;;;20.26;68.70;100185.78;5077582;27;46393;-64
2021/09/14 04:31:28;;;;;;;;;15.75;12.75;;;;;20.28;68.90;100186.47;5077539;27;45259;-64
2021/09/14 04:33:54;;;;;;;;;14.75;12.75;;;;;20.28;68.69;100195.34;5093350;27;45357;-63
2021/09/14 04:36:19;;;;;;;;;13.50;12.00;;;;;20.26;69.48;100193.78;5077881;27;45598;-65
2021/09/14 04:38:45;;;;;;;;;12.00;11.25;;;;;20.31;69.36;100188.06;5077745;28;46546;-64
2021/09/14 04:41:10;;;;;;;;;14.50;12.75;;;;;20.31;70.20;100172.03;5077394;27;45338;-63
2021/09/14 04:43:35;;;;;;;;;15.75;15.75;;;;;20.33;70.73;100164.72;5077744;27;45664;-64
2021/09/14 04:46:03;;;;;;;;;15.25;15.00;;;;;20.29;70.34;100146.31;5078034;27;45616;-63
2021/09/14 04:48:28;;;;;;;;;16.00;14.00;;;;;20.22;70.20;100121.13;5077523;28;46181;-62
2021/09/14 04:50:53;;;;;;;;;18.25;17.00;;;;;20.14;71.42;100111.09;5077439;27;45452;-63
2021/09/14 04:53:19;;;;;;;;;15.25;13.75;;;;;20.04;71.93;100096.03;5077968;27;45488;-62
2021/09/14 04:55:44;;;;;;;;;16.00;14.25;;;;;19.92;75.04;100071.28;5077185;27;45610;-63
2021/09/14 04:58:10;;;;;;;;;18.25;17.25;;;;;19.75;74.20;100054.03;5077299;27;45278;-64
2021/09/14 05:00:35;;;;;;;;;15.75;13.50;;;;;19.64;74.02;100063.81;5077147;27;45237;-64
2021/09/14 05:03:00;;;;;;;;;18.25;15.75;;;;;19.58;74.10;100082.16;5077363;27;45409;-65
2021/09/14 05:05:26;;;;;;;;;19.75;16.25;;;;;19.63;74.27;100104.81;5077166;27;45519;-65
2021/09/14 05:07:52;;;;;;;;;16.00;12.75;;;;;19.68;73.22;100118.59;5076871;27;46124;-63
2021/09/14 05:10:17;;;;;;;;;29.25;25.50;;;;;19.71;74.13;100128.19;5077179;27;45542;-63
2021/09/14 05:12:43;;;;;;;;;17.75;14.75;;;;;19.74;73.27;100111.91;5076839;27;45307;-64
2021/09/14 05:15:10;;;;;;;;;14.00;14.00;;;;;19.75;73.41;100105.59;5077060;28;45397;-63
2021/09/14 05:17:35;;;;;;;;;18.00;15.50;;;;;19.76;73.70;100107.28;5092319;27;47597;-63
2021/09/14 05:20:00;;;;;;;;;16.25;14.75;;;;;19.77;73.63;100118.78;5076880;27;45703;-64
2021/09/14 05:22:32;;;;;;;;;15.75;14.00;;;;;19.74;73.91;100135.06;5077077;27;45311;-64
2021/09/14 05:24:58;;;;;;;;;15.75;13.75;;;;;19.73;73.88;100154.72;5076982;28;45339;-63
2021/09/14 05:27:23;;;;;;;;;14.50;13.25;;;;;19.70;73.50;100166.50;5076697;27;46098;-63
2021/09/14 05:29:49;;;;;;;;;13.00;12.00;;;;;19.66;73.54;100157.06;5092756;27;45441;-63
2021/09/14 05:32:17;;;;;;;;;14.00;13.75;;;;;19.66;73.04;100170.41;5077100;27;45237;-63
2021/09/14 05:34:43;;;;;;;;;15.00;13.50;;;;;19.64;73.31;100173.19;5075743;28;45297;-65
2021/09/14 05:37:08;;;;;;;;;16.25;15.75;;;;;19.63;73.63;100192.84;5074069;27;46423;-64
2021/09/14 05:39:34;;;;;;;;;15.00;15.00;;;;;19.61;73.30;100199.28;5073140;27;45624;-64
2021/09/14 05:41:59;;;;;;;;;15.00;13.50;;;;;19.61;73.85;100207.28;5091407;27;45432;-64
2021/09/14 05:44:25;;;;;;;;;23.75;18.50;;;;;19.63;73.88;100213.38;5076867;27;45592;-64
2021/09/14 05:46:50;;;;;;;;;13.75;12.50;;;;;19.59;73.87;100211.91;5076953;27;45336;-64
2021/09/14 05:49:15;;;;;;;;;16.00;14.00;;;;;19.58;73.90;100224.41;5076698;27;45281;-65
2021/09/14 05:51:41;;;;;;;;;13.75;12.25;;;;;19.57;73.68;100236.06;5076695;27;45842;-63
2021/09/14 05:54:06;;;;;;;;;16.75;14.50;;;;;19.55;73.77;100232.66;5076893;27;45346;-63
2021/09/14 05:56:32;;;;;;;;;14.00;13.50;;;;;19.54;73.78;100249.66;5076559;27;46573;-63
2021/09/14 05:58:59;;;;;;;;;12.75;12.75;;;;;19.53;74.28;100267.47;5076707;27;45368;-64
2021/09/14 06:01:25;;;;;;;;;14.75;13.50;;;;;19.51;73.50;100263.25;5076794;27;45426;-64
2021/09/14 06:03:51;;;;;;;;;12.25;10.50;;;;;19.47;73.57;100273.31;5074703;27;45541;-64
2021/09/14 06:06:16;;;;;;;;;15.25;11.50;;;;;19.51;73.43;100281.91;5076594;27;45250;-63
2021/09/14 06:08:41;;;;;;;;;13.75;11.50;;;;;19.47;73.92;100291.16;5073808;28;45302;-64
2021/09/14 06:11:07;;;;;;;;;14.25;14.00;;;;;19.52;73.90;100296.94;5076963;27;45270;-64
2021/09/14 06:13:32;;;;;;;;;16.00;14.00;;;;;19.53;74.45;100299.47;5077354;27;45218;-64
2021/09/14 06:15:57;;;;;;;;;13.50;11.75;;;;;19.56;74.28;100303.72;5075949;27;46443;-63
2021/09/14 06:18:23;;;;;;;;;13.75;13.50;;;;;19.57;74.05;100300.06;5076438;27;45381;-63
2021/09/14 06:20:48;;;;;;;;;15.00;15.00;;;;;19.64;74.26;100311.94;5076350;27;45399;-65
2021/09/14 06:23:14;;;;;;;;;17.00;16.25;;;;;19.59;74.20;100303.47;5076531;27;45258;-64
2021/09/14 06:25:39;;;;;;;;;15.00;13.75;;;;;19.66;74.05;100317.16;5091670;27;47210;-63
2021/09/14 06:28:05;;;;;;;;;15.00;14.00;;;;;19.69;74.24;100312.41;5074623;28;45778;-65
2021/09/14 06:30:30;;;;;;;;;13.00;13.00;;;;;19.68;73.95;100310.69;5076029;27;45327;-64
2021/09/14 06:32:56;;;;;;;;;16.00;13.50;;;;;19.69;74.85;100303.56;5076198;27;45593;-64
2021/09/14 06:35:21;;;;;;;;;16.50;12.25;;;;;19.68;74.27;100296.53;5076065;27;46319;-64
2021/09/14 06:37:47;;;;;;;;;16.25;13.50;;;;;19.66;75.21;100293.97;5074397;28;45385;-64
2021/09/14 06:40:12;;;;;;;;;12.25;12.25;;;;;19.58;75.31;100285.78;5091531;27;45374;-66
2021/09/14 06:42:38;;;;;;;;;15.75;14.00;;;;;19.61;77.56;100300.66;5091748;27;45528;-65
2021/09/14 06:45:03;;;;;;;;;13.00;13.00;;;;;19.53;79.38;100294.13;5075631;27;46404;-63
2021/09/14 06:47:29;;;;;;;;;12.25;11.75;;;;;19.41;78.53;100295.16;5075475;27;45486;-66
2021/09/14 06:49:54;;;;;;;;;18.00;13.00;;;;;19.35;80.35;100309.84;5074466;28;45559;-65
2021/09/14 06:52:19;;;;;;;;;19.75;16.25;;;;;19.31;80.38;100315.53;5075787;27;45356;-65
2021/09/14 06:54:45;;;;;;;;;14.25;12.50;;;;;19.26;79.92;100321.28;5075405;27;46589;-65
2021/09/14 06:57:10;;;;;;;;;18.25;15.75;;;;;19.19;79.14;100334.25;5075155;27;45292;-64
2021/09/14 06:59:36;;;;;;;;;15.75;15.00;;;;;19.12;79.74;100349.03;5075367;27;45589;-63
2021/09/14 07:02:01;;;;;;;;;17.75;15.00;;;;;19.11;80.22;100355.34;5074943;27;45157;-65
2021/09/14 07:04:27;;;;;;;;;16.25;14.75;;;;;19.11;80.76;100353.53;5074861;27;45214;-65
2021/09/14 07:06:52;;;;;;;;;19.25;15.75;;;;;19.07;81.15;100341.38;5073750;28;45933;-65
2021/09/14 07:09:19;;;;;;;;;19.25;15.75;;;;;19.12;80.83;100351.69;5075127;27;45331;-65
2021/09/14 07:11:44;;;;;;;;;22.50;19.50;;;;;19.13;81.55;100356.06;5075417;27;45477;-68
2021/09/14 07:14:09;;;;;;;;;22.75;18.25;;;;;19.05;82.49;100330.00;5073421;28;45854;-66
2021/09/14 07:16:35;;;;;;;;;17.75;14.75;;;;;19.09;82.27;100333.28;5074890;27;45183;-65
2021/09/14 07:19:00;;;;;;;;;22.00;16.50;;;;;19.04;83.74;100325.66;5073569;27;45844;-65
2021/09/14 07:21:26;;;;;;;;;15.75;15.00;;;;;19.01;83.85;100315.22;5073820;27;45612;-65
2021/09/14 07:23:51;;;;;;;;;16.50;12.00;;;;;18.98;84.45;100296.81;5073648;27;46450;-65
2021/09/14 07:26:16;;;;;;;;;24.25;21.75;;;;;18.90;85.67;100268.09;5075337;27;45830;-65
2021/09/14 07:28:42;;;;;;;;;18.75;18.25;;;;;18.90;85.10;100262.78;5090832;27;45993;-63
2021/09/14 07:31:10;;;;;;;;;20.00;18.50;;;;;18.89;85.23;100263.75;5090500;27;45551;-65
2021/09/14 07:33:36;;;;;;;;;25.25;22.25;;;;;18.88;85.28;100253.19;5074470;27;46633;-68
2021/09/14 07:36:01;;;;;;;;;21.25;18.50;;;;;18.88;85.27;100248.72;5074452;27;45318;-64
2021/09/14 07:38:26;;;;;;;;;25.50;22.00;;;;;18.97;85.22;100252.47;5075507;27;45444;-66
2021/09/14 07:40:52;;;;;;;;;17.00;15.00;;;;;19.04;84.91;100247.50;5074057;28;45234;-65
2021/09/14 07:43:17;;;;;;;;;23.75;18.25;;;;;19.11;85.00;100243.38;5074739;27;45475;-64
2021/09/14 07:45:43;;;;;;;;;18.75;17.50;;;;;19.24;84.86;100260.06;5090527;27;45437;-66
2021/09/14 07:48:08;;;;;;;;;20.75;19.75;;;;;19.35;83.99;100261.84;5074961;27;45613;-64
2021/09/14 07:50:34;;;;;;;;;20.50;19.00;;;;;19.42;83.19;100239.03;5090804;27;45426;-64
2021/09/14 07:52:59;;;;;;;;;19.25;18.25;;;;;19.58;83.74;100237.75;5073396;28;47502;-65
2021/09/14 07:55:24;;;;;;;;;17.00;13.00;;;;;19.74;82.68;100248.00;5075233;27;45347;-65
2021/09/14 07:57:50;;;;;;;;;30.00;23.75;;;;;19.84;82.17;100250.72;5074750;28;45225;-63
2021/09/14 08:00:16;;;;;;;;;66.00;43.50;;;;;19.93;81.47;100257.97;5090810;27;45573;-64
2021/09/14 08:02:41;;;;;;;;;54.25;37.00;;;;;20.11;81.41;100268.03;5074633;27;46771;-63
2021/09/14 08:05:07;;;;;;;;;34.75;24.50;;;;;20.31;80.96;100277.00;5074889;28;45378;-64
2021/09/14 08:07:33;;;;;;;;;37.25;28.75;;;;;20.50;79.85;100283.44;5074652;27;45306;-64
2021/09/14 08:09:58;;;;;;;;;33.25;22.50;;;;;20.66;79.56;100280.28;5074670;27;45428;-66
2021/09/14 08:12:24;;;;;;;;;23.25;20.75;;;;;20.82;79.38;100277.13;5074691;28;46269;-65
2021/09/14 08:14:49;;;;;;;;;38.25;28.25;;;;;20.92;78.74;100285.16;5090399;27;45442;-64
2021/09/14 08:17:16;;;;;;;;;18.75;12.75;;;;;21.01;77.90;100285.22;5074812;27;45497;-62
2021/09/14 08:19:42;;;;;;;;;16.75;15.50;;;;;21.11;78.27;100287.88;5073276;28;45579;-63
2021/09/14 08:22:11;;;;;;;;;24.75;20.50;;;;;21.21;77.54;100292.44;5073947;28;45341;-63
2021/09/14 08:24:38;;;;;;;;;22.00;21.25;;;;;21.28;77.13;100291.72;5074239;27;45381;-64
2021/09/14 08:27:04;;;;;;;;;54.75;39.25;;;;;21.36;76.77;100293.72;5074252;28;45423;-64
2021/09/14 08:29:30;;;;;;;;;57.25;36.75;;;;;21.41;76.39;100303.97;5074652;27;45378;-65
2021/09/14 08:31:56;;;;;;;;;49.25;35.00;;;;;21.43;76.19;100313.59;5076453;27;45615;-65
2021/09/14 08:34:22;;;;;;;;;56.50;37.50;;;;;21.41;76.07;100318.22;5077274;27;45272;-64
2021/09/14 08:36:47;;;;;;;;;22.25;17.50;;;;;21.45;75.72;100324.13;5075908;27;45349;-65
2021/09/14 08:39:13;;;;;;;;;22.50;19.50;;;;;21.39;75.89;100314.84;5077800;27;45612;-64
2021/09/14 08:41:38;;;;;;;;;24.25;19.75;;;;;21.41;76.02;100301.31;5093191;27;48020;-67
2021/09/14 08:44:04;;;;;;;;;25.25;18.75;;;;;21.48;75.96;100313.16;5076140;28;45331;-65
2021/09/14 08:46:30;;;;;;;;;26.00;18.00;;;;;21.57;75.73;100312.31;5077802;27;45279;-65
2021/09/14 08:48:57;;;;;;;;;18.75;17.75;;;;;21.73;75.61;100313.59;5077425;27;45639;-64
2021/09/14 08:51:23;;;;;;;;;18.50;17.50;;;;;21.81;75.16;100316.44;5077058;27;45394;-64
2021/09/14 08:53:48;;;;;;;;;17.75;16.00;;;;;21.92;74.73;100328.81;5076868;28;45276;-65
2021/09/14 08:56:14;;;;;;;;;21.25;17.75;;;;;21.92;74.89;100331.50;5077290;27;45350;-64
2021/09/14 08:58:42;;;;;;;;;20.50;12.25;;;;;21.96;74.74;100348.16;5078179;27;45491;-64
2021/09/14 09:01:14;;;;;;;;;19.50;17.25;;;;;21.94;74.50;100342.91;5077816;27;46528;-64
2021/09/14 09:03:40;;;;;;;;;19.75;17.00;;;;;22.01;74.46;100338.69;5075814;28;45408;-65
2021/09/14 09:06:06;;;;;;;;;15.25;14.25;;;;;22.08;74.55;100335.44;5076855;27;45465;-64
2021/09/14 09:08:33;;;;;;;;;31.50;25.00;;;;;22.18;74.43;100333.59;5075937;28;45847;-65
2021/09/14 09:11:06;;;;;;;;;18.75;15.50;;;;;22.36;73.53;100338.22;5077161;28;45270;-66
2021/09/14 09:13:43;;;;;;;;;17.50;15.75;;;;;22.48;74.01;100347.81;5077547;28;45205;-64
2021/09/14 09:16:18;;;;;;;;;15.50;13.00;;;;;22.57;73.57;100341.59;5076772;27;45429;-63
2021/09/14 09:19:03;;;;;;;;;16.50;14.75;;;;;22.66;73.13;100341.69;5076662;27;45563;-64
2021/09/14 09:21:31;;;;;;;;;17.50;14.75;;;;;22.74;72.26;100341.81;5077150;27;46347;-65
2021/09/14 09:24:02;;;;;;;;;31.25;21.00;;;;;22.78;72.37;100337.84;5076292;27;45314;-64
2021/09/14 09:26:34;;;;;;;;;19.00;18.00;;;;;22.87;72.35;100344.16;5076844;27;45790;-65
2021/09/14 09:29:05;;;;;;;;;17.25;15.75;;;;;22.93;72.08;100334.66;5075539;28;45522;-64
2021/09/14 09:31:37;;;;;;;;;18.75;17.00;;;;;22.99;72.05;100324.19;5075266;28;47520;-65
2021/09/14 09:34:07;;;;;;;;;15.00;15.00;;;;;23.12;71.97;100318.47;5075267;28;45318;-65
2021/09/14 09:36:40;;;;;;;;;15.25;13.25;;;;;23.25;71.26;100322.66;5077051;27;45393;-64
2021/09/14 09:39:07;;;;;;;;;25.75;22.00;;;;;23.42;71.35;100343.31;5092543;27;45241;-64
2021/09/14 09:41:34;;;;;;;;;21.00;19.25;;;;;23.59;71.03;100340.81;5092395;27;47197;-65
2021/09/14 09:44:12;;;;;;;;;18.25;17.50;;;;;23.75;69.84;100340.94;5076713;27;45436;-64
2021/09/14 09:46:38;;;;;;;;;21.75;18.25;;;;;23.93;69.47;100345.47;5076561;27;45206;-64
2021/09/14 09:49:06;;;;;;;;;20.50;20.00;;;;;24.07;69.41;100333.38;5076523;27;45411;-65
2021/09/14 09:51:33;;;;;;;;;19.50;18.00;;;;;24.16;68.29;100318.13;5076136;27;46295;-66
2021/09/14 09:54:00;;;;;;;;;48.50;40.00;;;;;24.24;68.44;100323.56;5075940;27;45401;-65
2021/09/14 09:56:26;;;;;;;;;23.50;21.25;;;;;24.29;67.92;100321.25;5074817;28;45404;-64
2021/09/14 09:58:51;;;;;;;;;26.25;20.00;;;;;24.34;67.92;100313.53;5091868;27;45238;-65
2021/09/14 10:01:23;;;;;;;;;20.50;16.75;;;;;24.44;66.61;100324.19;5076019;27;46054;-65
2021/09/14 10:03:57;;;;;;;;;17.50;16.00;;;;;24.47;67.68;100325.75;5075663;27;45519;-64
2021/09/14 10:06:29;;;;;;;;;20.75;19.00;;;;;24.51;66.48;100319.88;5075759;27;45429;-65
2021/09/14 10:08:55;;;;;;;;;16.00;15.25;;;;;24.55;66.20;100312.34;5091646;27;45359;-64
2021/09/14 10:11:29;;;;;;;;;21.00;19.00;;;;;24.62;66.95;100312.53;5091282;27;46563;-67
2021/09/14 10:14:12;;;;;;;;;13.00;13.00;;;;;24.85;66.16;100320.06;5075757;28;45216;-65
2021/09/14 10:16:44;;;;;;;;;15.75;15.25;;;;;24.93;65.20;100312.03;5073759;28;45430;-64
2021/09/14 10:19:13;;;;;;;;;17.50;16.50;;;;;24.96;64.69;100311.72;5074511;28;45522;-66
2021/09/14 10:21:41;;;;;;;;;16.00;16.00;;;;;24.97;64.37;100315.25;5091236;27;46146;-65
2021/09/14 10:24:18;;;;;;;;;15.50;15.00;;;;;25.02;64.57;100310.22;5075674;28;45472;-64
2021/09/14 10:26:44;;;;;;;;;19.25;15.00;;;;;25.19;64.71;100317.31;5075869;27;45382;-65
2021/09/14 10:29:14;;;;;;;;;17.00;16.50;;;;;25.33;64.13;100307.78;5076019;27;45531;-64
2021/09/14 10:31:41;;;;;;;;;22.50;20.00;;;;;25.52;63.73;100320.13;5075627;27;45650;-65
2021/09/14 10:34:10;;;;;;;;;16.75;16.75;;;;;25.65;63.02;100316.09;5075741;27;45470;-65
2021/09/14 10:36:37;;;;;;;;;16.75;14.75;;;;;25.72;62.95;100321.66;5076071;27;45404;-66
2021/09/14 10:39:08;;;;;;;;;18.25;17.50;;;;;25.84;62.22;100314.91;5076030;27;45373;-65
2021/09/14 10:41:38;;;;;;;;;20.25;19.00;;;;;25.95;62.02;100322.66;5073870;28;48245;-64
2021/09/14 10:44:08;;;;;;;;;14.75;14.75;;;;;26.09;61.00;100318.44;5075342;28;45370;-65
2021/09/14 10:46:34;;;;;;;;;17.75;12.00;;;;;26.19;61.26;100330.94;5075736;27;45487;-64
2021/09/14 10:49:00;;;;;;;;;18.00;15.25;;;;;26.21;60.41;100328.91;5075398;27;45659;-64
2021/09/14 10:51:26;;;;;;;;;13.75;13.25;;;;;26.19;59.98;100326.41;5074899;27;46167;-65
2021/09/14 10:53:57;;;;;;;;;21.50;15.75;;;;;26.19;60.10;100325.53;5074350;27;45286;-65
2021/09/14 10:56:24;;;;;;;;;13.75;13.75;;;;;26.18;59.34;100318.47;5075223;27;45688;-66
2021/09/14 10:58:50;;;;;;;;;16.25;15.00;;;;;26.12;59.70;100322.66;5075905;28;45683;-63
2021/09/14 11:01:23;;;;;;;;;21.75;20.00;;;;;26.06;59.91;100326.03;5074468;27;45400;-66
2021/09/14 11:04:10;;;;;;;;;16.50;16.50;;;;;25.97;60.58;100322.50;5074948;28;45478;-65
2021/09/14 11:06:37;;;;;;;;;19.00;15.00;;;;;26.01;60.18;100313.06;5075461;27;45303;-66
2021/09/14 11:09:06;;;;;;;;;13.75;11.25;;;;;26.14;60.06;100314.41;5075636;27;45559;-65
2021/09/14 11:11:32;;;;;;;;;17.75;17.25;;;;;26.19;59.64;100314.75;5074630;28;45484;-64
2021/09/14 11:13:58;;;;;;;;;17.75;16.50;;;;;26.19;59.62;100315.63;5075041;27;45506;-64
2021/09/14 11:16:23;;;;;;;;;11.75;11.00;;;;;26.09;59.15;100320.31;5075254;27;46038;-64
2021/09/14 11:18:49;;;;;;;;;12.25;12.25;;;;;25.99;59.22;100307.00;5075396;28;45322;-66
2021/09/14 11:21:17;;;;;;;;;15.50;12.50;;;;;26.02;58.70;100305.84;5074991;28;46276;-69
2021/09/14 11:23:47;;;;;;;;;13.75;13.75;;;;;26.10;59.38;100313.91;5073687;27;45310;-66
2021/09/14 11:26:15;;;;;;;;;17.50;16.25;;;;;26.32;59.16;100316.94;5074015;28;45509;-65
2021/09/14 11:28:52;;;;;;;;;18.75;15.25;;;;;26.51;58.77;100311.16;5074987;27;45363;-64
2021/09/14 11:31:17;;;;;;;;;17.00;14.75;;;;;26.67;57.89;100309.41;5089974;27;46191;-65
2021/09/14 11:33:44;;;;;;;;;15.25;13.00;;;;;26.84;57.40;100312.94;5072881;28;45816;-65
2021/09/14 11:36:11;;;;;;;;;11.50;11.50;;;;;27.04;57.48;100315.19;5074399;27;45271;-66
2021/09/14 11:38:37;;;;;;;;;18.50;14.25;;;;;27.34;56.92;100309.94;5090357;27;46124;-64
2021/09/14 11:41:09;;;;;;;;;17.75;15.50;;;;;27.79;55.85;100318.28;5073944;27;45369;-64
2021/09/14 11:43:37;;;;;;;;;14.25;13.50;;;;;28.07;55.55;100299.63;5075092;27;45324;-66
2021/09/14 11:46:20;;;;;;;;;15.00;13.25;;;;;28.31;54.66;100308.53;5074932;27;45375;-65
2021/09/14 11:48:59;;;;;;;;;16.75;13.50;;;;;28.48;53.50;100313.75;5090357;27;45284;-64
2021/09/14 11:51:36;;;;;;;;;14.25;12.75;;;;;28.41;52.80;100306.38;5074399;27;45487;-64
2021/09/14 11:54:01;;;;;;;;;15.00;14.00;;;;;28.32;53.20;100307.50;5073041;28;45409;-65
2021/09/14 11:56:27;;;;;;;;;11.75;11.25;;;;;28.26;53.38;100292.03;5089689;27;45229;-65
2021/09/14 11:58:56;;;;;;;;;13.75;12.25;;;;;28.25;52.60;100302.00;5090189;27;45296;-65
2021/09/14 12:01:32;;;;;;;;;10.50;9.25;;;;;28.14;52.30;100308.69;5074247;27;45547;-63
2021/09/14 12:03:57;;;;;;;;;9.75;9.00;;;;;28.00;52.53;100294.09;5073555;27;45459;-64